Time;durP1;ratioP1;P1;durP2;ratioP2;P2;SDS_P1;SDS_P2;PMS_P1;PMS_P2;Temp;Humidity;BMP_temperature;BMP_pressure;BME280_temperature;BME280_humidity;BME280_pressure;Samples;Min_cycle;Max_cycle;Signal;HPM_P1;HPM_P2
2023/12/06 00:01:54;;;;;;;55.65;33.00;;;;;;;;;;4972509;28;20049;-77
2023/12/06 00:04:20;;;;;;;57.65;32.47;;;;;;;;;;4972371;28;20772;-78
2023/12/06 00:06:46;;;;;;;60.42;33.42;;;;;;;;;;5003722;28;20042;-78
2023/12/06 00:09:12;;;;;;;61.15;33.83;;;;;;;;;;4973920;28;20073;-78
2023/12/06 00:11:38;;;;;;;62.83;34.22;;;;;;;;;;4969596;28;20042;-78
2023/12/06 00:14:04;;;;;;;59.28;33.60;;;;;;;;;;4986907;28;20034;-77
2023/12/06 00:16:30;;;;;;;64.10;34.03;;;;;;;;;;4989951;28;20069;-77
2023/12/06 00:18:56;;;;;;;63.22;34.50;;;;;;;;;;4987062;28;20812;-80
2023/12/06 00:21:23;;;;;;;61.00;33.15;;;;;;;;;;4972606;28;20041;-80
2023/12/06 00:23:49;;;;;;;59.88;33.45;;;;;;;;;;4977226;28;20379;-81
2023/12/06 00:26:15;;;;;;;56.95;32.90;;;;;;;;;;4973163;28;20041;-81
2023/12/06 00:28:41;;;;;;;63.45;34.70;;;;;;;;;;4974980;28;20046;-82
2023/12/06 00:31:07;;;;;;;62.42;32.90;;;;;;;;;;4988072;28;20071;-82
2023/12/06 00:33:33;;;;;;;59.45;32.80;;;;;;;;;;5002250;28;20459;-81
2023/12/06 00:35:59;;;;;;;60.42;33.00;;;;;;;;;;4974010;28;20049;-81
2023/12/06 00:38:25;;;;;;;59.15;35.15;;;;;;;;;;4985724;28;20038;-81
2023/12/06 00:40:51;;;;;;;65.22;34.85;;;;;;;;;;4985957;28;20562;-81
2023/12/06 00:43:17;;;;;;;63.53;34.28;;;;;;;;;;4983803;28;20054;-80
2023/12/06 00:45:44;;;;;;;59.13;32.47;;;;;;;;;;4971198;28;20073;-81
2023/12/06 00:48:10;;;;;;;63.35;34.28;;;;;;;;;;4986224;28;20043;-81
2023/12/06 00:50:39;;;;;;;65.30;34.05;;;;;;;;;;4984770;28;20034;-81
2023/12/06 00:53:05;;;;;;;61.42;33.88;;;;;;;;;;4971780;28;20073;-80
2023/12/06 00:55:31;;;;;;;61.10;33.17;;;;;;;;;;4972445;28;21084;-80
2023/12/06 00:57:57;;;;;;;59.30;33.38;;;;;;;;;;4987084;28;20484;-82
2023/12/06 01:00:23;;;;;;;61.65;33.40;;;;;;;;;;5003404;28;20434;-82
2023/12/06 01:02:49;;;;;;;61.28;32.85;;;;;;;;;;4969687;28;20132;-83
2023/12/06 01:05:15;;;;;;;58.38;32.22;;;;;;;;;;4973346;28;20092;-81
2023/12/06 01:07:42;;;;;;;61.20;33.60;;;;;;;;;;4969381;28;20045;-80
2023/12/06 01:10:08;;;;;;;55.90;31.65;;;;;;;;;;4970947;28;20043;-81
2023/12/06 01:12:38;;;;;;;59.10;33.05;;;;;;;;;;4984173;28;20062;-81
2023/12/06 01:15:04;;;;;;;64.40;33.83;;;;;;;;;;4971649;28;20323;-81
2023/12/06 01:17:32;;;;;;;57.95;33.03;;;;;;;;;;4986485;28;20517;-81
2023/12/06 01:19:58;;;;;;;62.20;34.65;;;;;;;;;;4956019;28;20101;-82
2023/12/06 01:22:24;;;;;;;65.97;35.55;;;;;;;;;;4987186;28;20133;-82
2023/12/06 01:24:57;;;;;;;59.33;32.28;;;;;;;;;;4953246;28;20081;-81
2023/12/06 01:27:23;;;;;;;64.30;34.30;;;;;;;;;;5001628;28;20084;-81
2023/12/06 01:29:49;;;;;;;60.40;33.08;;;;;;;;;;5001034;28;20039;-77
2023/12/06 01:32:16;;;;;;;60.47;34.13;;;;;;;;;;4985236;28;20046;-78
2023/12/06 01:34:43;;;;;;;58.92;32.33;;;;;;;;;;4966659;28;20496;-77
2023/12/06 01:37:09;;;;;;;55.00;31.42;;;;;;;;;;4985359;28;20039;-77
2023/12/06 01:39:35;;;;;;;53.20;30.67;;;;;;;;;;4985187;28;20109;-81
2023/12/06 01:42:01;;;;;;;58.67;32.47;;;;;;;;;;4984660;28;20057;-79
2023/12/06 01:44:27;;;;;;;60.30;32.85;;;;;;;;;;5002109;28;20461;-80
2023/12/06 01:46:53;;;;;;;57.35;31.73;;;;;;;;;;5001265;28;20103;-80
2023/12/06 01:49:19;;;;;;;53.58;30.23;;;;;;;;;;4970370;28;20101;-80
2023/12/06 01:51:47;;;;;;;54.90;29.58;;;;;;;;;;4986817;28;20539;-80
2023/12/06 01:54:13;;;;;;;52.28;29.85;;;;;;;;;;5001291;28;20043;-80
2023/12/06 01:56:42;;;;;;;54.17;29.58;;;;;;;;;;4983767;28;20045;-80
2023/12/06 01:59:11;;;;;;;48.55;28.33;;;;;;;;;;4980466;28;20046;-81
2023/12/06 02:01:37;;;;;;;44.25;26.58;;;;;;;;;;4967371;28;20037;-81
2023/12/06 02:04:06;;;;;;;46.15;26.17;;;;;;;;;;5000557;28;20038;-81
2023/12/06 02:06:32;;;;;;;43.55;24.73;;;;;;;;;;4956457;28;20033;-81
2023/12/06 02:08:59;;;;;;;46.78;25.52;;;;;;;;;;4969726;28;20043;-80
2023/12/06 02:11:25;;;;;;;46.33;26.67;;;;;;;;;;4969130;28;20042;-81
2023/12/06 02:13:51;;;;;;;40.70;24.48;;;;;;;;;;4968438;28;20078;-80
2023/12/06 02:16:18;;;;;;;42.15;25.13;;;;;;;;;;4982091;28;20038;-80
2023/12/06 02:18:44;;;;;;;45.08;25.65;;;;;;;;;;4969131;28;20046;-80
2023/12/06 02:21:10;;;;;;;39.15;23.63;;;;;;;;;;4968853;28;20557;-80
2023/12/06 02:23:38;;;;;;;42.10;24.85;;;;;;;;;;4983651;28;20047;-80
2023/12/06 02:26:05;;;;;;;39.10;24.00;;;;;;;;;;4984162;28;21311;-79
2023/12/06 02:28:31;;;;;;;34.78;23.02;;;;;;;;;;4993829;28;20161;-79
2023/12/06 02:30:57;;;;;;;37.05;23.08;;;;;;;;;;4963600;28;20501;-80
2023/12/06 02:33:24;;;;;;;34.50;21.98;;;;;;;;;;4982252;28;20424;-79
2023/12/06 02:35:52;;;;;;;33.13;21.95;;;;;;;;;;4967662;28;20137;-80
2023/12/06 02:38:19;;;;;;;32.17;19.63;;;;;;;;;;4988873;28;20066;-80
2023/12/06 02:40:47;;;;;;;35.03;20.63;;;;;;;;;;4969382;28;20100;-79
2023/12/06 02:43:13;;;;;;;31.58;20.00;;;;;;;;;;4997729;28;20076;-80
2023/12/06 02:45:39;;;;;;;32.05;19.38;;;;;;;;;;4967803;28;20066;-80
2023/12/06 02:48:06;;;;;;;30.25;20.13;;;;;;;;;;4967255;28;20039;-80
2023/12/06 02:50:32;;;;;;;30.40;18.33;;;;;;;;;;4966221;28;20037;-80
2023/12/06 02:52:58;;;;;;;30.25;18.40;;;;;;;;;;4984152;28;20081;-80
2023/12/06 02:55:24;;;;;;;27.98;18.17;;;;;;;;;;4970089;28;20042;-80
2023/12/06 02:57:50;;;;;;;30.77;18.75;;;;;;;;;;4981324;28;20096;-80
2023/12/06 03:00:16;;;;;;;31.50;18.42;;;;;;;;;;4968735;28;20042;-79
2023/12/06 03:02:42;;;;;;;28.13;18.23;;;;;;;;;;4965183;28;20054;-80
2023/12/06 03:05:08;;;;;;;29.02;18.58;;;;;;;;;;4983485;28;20105;-79
2023/12/06 03:07:34;;;;;;;28.45;19.23;;;;;;;;;;4971368;28;20034;-80
2023/12/06 03:10:01;;;;;;;27.77;17.75;;;;;;;;;;5000018;28;20050;-80
2023/12/06 03:12:30;;;;;;;26.58;17.65;;;;;;;;;;4983714;28;20092;-80
2023/12/06 03:14:56;;;;;;;28.05;17.05;;;;;;;;;;4982606;28;20145;-80
2023/12/06 03:17:22;;;;;;;24.77;17.50;;;;;;;;;;4981862;28;20050;-80
2023/12/06 03:19:49;;;;;;;26.95;17.58;;;;;;;;;;4969199;28;20056;-80
2023/12/06 03:22:17;;;;;;;26.80;16.70;;;;;;;;;;4993475;28;20061;-80
2023/12/06 03:24:43;;;;;;;23.52;16.95;;;;;;;;;;5001483;28;20580;-79
2023/12/06 03:27:09;;;;;;;28.55;17.30;;;;;;;;;;4983551;28;20570;-79
2023/12/06 03:29:35;;;;;;;30.30;17.67;;;;;;;;;;5000544;28;20030;-80
2023/12/06 03:32:01;;;;;;;27.20;18.05;;;;;;;;;;4967437;28;20074;-80
2023/12/06 03:34:27;;;;;;;29.80;17.90;;;;;;;;;;4983118;28;20053;-78
2023/12/06 03:36:53;;;;;;;30.02;18.27;;;;;;;;;;4989706;28;20038;-78
2023/12/06 03:39:19;;;;;;;29.77;17.60;;;;;;;;;;5003822;28;20038;-78
2023/12/06 03:41:45;;;;;;;30.10;19.50;;;;;;;;;;5002207;28;20602;-78
2023/12/06 03:44:12;;;;;;;27.55;18.55;;;;;;;;;;4956109;28;20038;-77
2023/12/06 03:46:38;;;;;;;27.00;18.42;;;;;;;;;;5002052;28;20045;-78
2023/12/06 03:49:04;;;;;;;30.85;18.98;;;;;;;;;;4992321;28;20039;-79
2023/12/06 03:51:30;;;;;;;27.15;18.00;;;;;;;;;;4971256;28;20038;-81
2023/12/06 03:53:57;;;;;;;29.08;18.73;;;;;;;;;;4971312;28;20096;-80
2023/12/06 03:56:24;;;;;;;30.27;18.58;;;;;;;;;;4988013;28;20754;-79
2023/12/06 03:58:51;;;;;;;31.40;18.40;;;;;;;;;;4973347;28;20421;-80
2023/12/06 04:01:17;;;;;;;28.75;18.58;;;;;;;;;;4988156;28;20117;-80
2023/12/06 04:03:44;;;;;;;31.48;18.02;;;;;;;;;;5003184;28;20387;-80
2023/12/06 04:06:10;;;;;;;33.35;19.08;;;;;;;;;;5004351;28;20100;-80
2023/12/06 04:08:37;;;;;;;27.63;17.73;;;;;;;;;;4960360;28;20045;-81
2023/12/06 04:11:04;;;;;;;28.25;19.25;;;;;;;;;;4988831;28;20730;-81
2023/12/06 04:13:30;;;;;;;26.63;18.58;;;;;;;;;;4971189;28;20133;-81
2023/12/06 04:15:56;;;;;;;32.45;18.88;;;;;;;;;;4974370;28;20046;-81
2023/12/06 04:18:24;;;;;;;30.60;18.95;;;;;;;;;;4987260;28;20057;-80
2023/12/06 04:20:50;;;;;;;33.53;19.55;;;;;;;;;;5002937;28;20046;-80
2023/12/06 04:23:16;;;;;;;29.20;19.42;;;;;;;;;;4970759;28;20121;-82
2023/12/06 04:25:46;;;;;;;27.52;18.85;;;;;;;;;;4986761;28;20630;-81
2023/12/06 04:28:12;;;;;;;28.77;19.60;;;;;;;;;;4969267;28;20069;-81
2023/12/06 04:30:38;;;;;;;30.05;19.13;;;;;;;;;;4972564;28;20550;-80
2023/12/06 04:33:05;;;;;;;32.88;20.05;;;;;;;;;;5002206;28;20104;-80
2023/12/06 04:35:31;;;;;;;28.98;19.02;;;;;;;;;;4971220;28;20046;-80
2023/12/06 04:37:57;;;;;;;28.27;18.67;;;;;;;;;;4972559;28;20050;-80
2023/12/06 04:40:23;;;;;;;31.42;20.13;;;;;;;;;;4987511;28;20042;-80
2023/12/06 04:42:49;;;;;;;27.77;18.25;;;;;;;;;;4982325;28;20063;-80
2023/12/06 04:45:15;;;;;;;31.63;19.77;;;;;;;;;;4985278;28;20045;-81
2023/12/06 04:47:41;;;;;;;29.90;18.52;;;;;;;;;;4957640;28;20193;-81
2023/12/06 04:50:09;;;;;;;30.02;18.95;;;;;;;;;;4975610;28;20046;-81
2023/12/06 04:52:36;;;;;;;26.88;18.70;;;;;;;;;;4988254;28;20043;-80
2023/12/06 04:55:06;;;;;;;26.98;17.80;;;;;;;;;;4970447;28;20046;-81
2023/12/06 04:57:32;;;;;;;26.90;19.05;;;;;;;;;;4971018;28;20034;-81
2023/12/06 04:59:58;;;;;;;26.88;18.73;;;;;;;;;;4999453;28;20423;-80
2023/12/06 05:02:24;;;;;;;25.67;17.75;;;;;;;;;;4968501;28;20042;-81
2023/12/06 05:04:51;;;;;;;24.70;16.90;;;;;;;;;;4970575;28;20494;-81
2023/12/06 05:07:17;;;;;;;25.65;17.80;;;;;;;;;;4982710;28;20038;-81
2023/12/06 05:09:43;;;;;;;26.17;18.17;;;;;;;;;;4968586;28;20050;-81
2023/12/06 05:12:09;;;;;;;27.23;17.83;;;;;;;;;;4970167;28;20482;-78
2023/12/06 05:14:35;;;;;;;30.67;17.35;;;;;;;;;;5001318;28;20042;-77
2023/12/06 05:17:01;;;;;;;26.50;17.85;;;;;;;;;;4953249;28;20040;-78
2023/12/06 05:19:27;;;;;;;28.40;18.00;;;;;;;;;;4974681;28;20078;-78
2023/12/06 05:21:53;;;;;;;27.52;19.02;;;;;;;;;;4984513;28;20046;-78
2023/12/06 05:24:20;;;;;;;27.70;17.85;;;;;;;;;;4969948;28;20049;-77
2023/12/06 05:26:49;;;;;;;24.10;17.42;;;;;;;;;;4985298;28;20035;-78
2023/12/06 05:29:16;;;;;;;27.67;18.08;;;;;;;;;;4996865;28;20125;-78
2023/12/06 05:31:44;;;;;;;27.35;17.85;;;;;;;;;;4982966;28;20045;-78
2023/12/06 05:34:10;;;;;;;30.38;19.30;;;;;;;;;;4987074;28;20577;-77
2023/12/06 05:36:36;;;;;;;25.00;17.75;;;;;;;;;;4968743;28;20046;-78
2023/12/06 05:39:07;;;;;;;29.55;18.67;;;;;;;;;;4968466;28;20038;-78
2023/12/06 05:41:33;;;;;;;29.73;18.75;;;;;;;;;;4968031;28;20128;-78
2023/12/06 05:43:59;;;;;;;32.53;19.40;;;;;;;;;;4986332;28;20042;-78
2023/12/06 05:46:25;;;;;;;27.92;18.67;;;;;;;;;;5001716;28;20064;-77
2023/12/06 05:48:51;;;;;;;35.53;20.25;;;;;;;;;;4973330;28;20498;-78
2023/12/06 05:51:17;;;;;;;26.13;18.17;;;;;;;;;;4969548;28;20619;-77
2023/12/06 05:53:43;;;;;;;32.03;18.67;;;;;;;;;;4998880;28;20034;-78
2023/12/06 05:56:09;;;;;;;30.75;18.77;;;;;;;;;;4969711;28;20035;-77
2023/12/06 05:58:39;;;;;;;31.33;19.52;;;;;;;;;;4987608;28;20056;-77
2023/12/06 06:01:05;;;;;;;28.23;17.85;;;;;;;;;;4979508;28;20149;-77
2023/12/06 06:03:31;;;;;;;30.92;19.02;;;;;;;;;;4971462;28;20038;-77
2023/12/06 06:05:57;;;;;;;32.95;19.73;;;;;;;;;;5002239;28;20653;-77
2023/12/06 06:08:23;;;;;;;29.48;18.40;;;;;;;;;;4953167;28;20046;-77
2023/12/06 06:10:49;;;;;;;34.00;20.35;;;;;;;;;;4985270;28;20046;-80
2023/12/06 06:13:16;;;;;;;30.80;19.98;;;;;;;;;;4969626;28;20062;-79
2023/12/06 06:15:42;;;;;;;32.10;19.10;;;;;;;;;;4968506;28;20042;-80
2023/12/06 06:18:08;;;;;;;32.38;17.80;;;;;;;;;;4986684;28;20081;-80
2023/12/06 06:20:34;;;;;;;29.00;19.13;;;;;;;;;;4954668;28;21546;-80
2023/12/06 06:23:04;;;;;;;31.25;19.05;;;;;;;;;;4999928;28;20038;-80
2023/12/06 06:25:30;;;;;;;32.80;19.85;;;;;;;;;;4968799;28;20049;-79
2023/12/06 06:27:57;;;;;;;35.83;19.15;;;;;;;;;;4955781;28;20483;-80
2023/12/06 06:30:23;;;;;;;31.88;19.90;;;;;;;;;;4972087;28;20046;-80
2023/12/06 06:32:49;;;;;;;30.40;19.92;;;;;;;;;;4969131;28;20057;-81
2023/12/06 06:35:16;;;;;;;30.80;19.92;;;;;;;;;;4967251;28;20046;-80
2023/12/06 06:37:48;;;;;;;30.73;18.92;;;;;;;;;;4984897;28;20043;-80
2023/12/06 06:40:14;;;;;;;29.40;19.35;;;;;;;;;;4968938;28;20046;-80
2023/12/06 06:42:41;;;;;;;29.02;18.75;;;;;;;;;;4986937;28;20409;-80
2023/12/06 06:45:08;;;;;;;27.30;18.17;;;;;;;;;;5003670;28;20050;-80
2023/12/06 06:47:37;;;;;;;31.20;19.02;;;;;;;;;;4973366;28;20073;-80
2023/12/06 06:50:04;;;;;;;31.65;19.63;;;;;;;;;;4985427;28;20038;-80
2023/12/06 06:52:31;;;;;;;30.05;19.48;;;;;;;;;;4984104;28;20039;-80
2023/12/06 06:54:57;;;;;;;31.85;19.45;;;;;;;;;;5000970;28;20041;-80
2023/12/06 06:57:23;;;;;;;26.63;18.08;;;;;;;;;;4978361;28;20042;-81
2023/12/06 06:59:50;;;;;;;25.33;17.63;;;;;;;;;;4987561;28;20046;-81
2023/12/06 07:02:19;;;;;;;27.77;18.17;;;;;;;;;;4973336;28;20046;-80
2023/12/06 07:04:46;;;;;;;32.20;17.52;;;;;;;;;;5004066;28;20058;-80
2023/12/06 07:07:12;;;;;;;28.15;17.98;;;;;;;;;;5003346;28;20368;-80
2023/12/06 07:09:38;;;;;;;25.75;17.20;;;;;;;;;;4969175;28;20073;-80
2023/12/06 07:12:04;;;;;;;27.67;18.30;;;;;;;;;;4977115;28;20046;-80
2023/12/06 07:14:30;;;;;;;26.02;17.30;;;;;;;;;;4975628;28;22206;-80
2023/12/06 07:16:57;;;;;;;28.13;18.25;;;;;;;;;;4974010;28;20179;-80
2023/12/06 07:19:23;;;;;;;28.73;18.98;;;;;;;;;;4973890;28;20042;-80
2023/12/06 07:21:50;;;;;;;33.08;19.35;;;;;;;;;;4990896;28;20070;-80
2023/12/06 07:24:17;;;;;;;39.00;26.63;;;;;;;;;;4990157;28;20451;-80
2023/12/06 07:26:43;;;;;;;43.55;26.67;;;;;;;;;;4992071;28;20045;-80
2023/12/06 07:29:09;;;;;;;34.33;23.23;;;;;;;;;;4972783;28;20480;-80
2023/12/06 07:31:36;;;;;;;27.90;20.15;;;;;;;;;;4976262;28;20121;-77
2023/12/06 07:34:02;;;;;;;26.33;19.10;;;;;;;;;;4987017;28;20054;-80
2023/12/06 07:36:28;;;;;;;25.95;17.38;;;;;;;;;;4973816;28;20078;-80
2023/12/06 07:38:54;;;;;;;25.80;18.10;;;;;;;;;;4971719;28;20049;-80
2023/12/06 07:41:20;;;;;;;28.92;18.38;;;;;;;;;;4987231;28;20132;-81
2023/12/06 07:43:46;;;;;;;24.67;17.80;;;;;;;;;;5007591;28;20561;-81
2023/12/06 07:46:13;;;;;;;24.02;17.25;;;;;;;;;;4987706;28;20038;-81
2023/12/06 07:48:39;;;;;;;24.45;16.98;;;;;;;;;;4977004;28;20046;-81
2023/12/06 07:51:05;;;;;;;24.75;17.25;;;;;;;;;;4974825;28;20038;-81
2023/12/06 07:53:31;;;;;;;26.77;18.77;;;;;;;;;;4997907;28;20074;-80
2023/12/06 07:55:58;;;;;;;27.60;18.80;;;;;;;;;;4977595;28;20070;-81
2023/12/06 07:58:30;;;;;;;26.63;18.10;;;;;;;;;;5008486;28;20054;-80
2023/12/06 08:00:57;;;;;;;29.33;18.85;;;;;;;;;;5008604;28;20038;-80
2023/12/06 08:03:26;;;;;;;30.05;18.45;;;;;;;;;;4992049;28;20069;-80
2023/12/06 08:05:52;;;;;;;25.48;16.92;;;;;;;;;;4975214;28;20034;-81
2023/12/06 08:08:19;;;;;;;26.65;18.15;;;;;;;;;;4976211;28;20038;-81
2023/12/06 08:10:46;;;;;;;26.40;18.10;;;;;;;;;;4992024;28;20044;-81
2023/12/06 08:13:12;;;;;;;26.92;18.58;;;;;;;;;;4977533;28;20050;-81
2023/12/06 08:15:38;;;;;;;23.83;17.48;;;;;;;;;;4993124;28;20530;-80
2023/12/06 08:18:06;;;;;;;26.00;17.10;;;;;;;;;;5003256;28;20502;-81
2023/12/06 08:20:33;;;;;;;22.30;16.77;;;;;;;;;;4975621;28;20418;-81
2023/12/06 08:22:59;;;;;;;21.38;16.45;;;;;;;;;;4973057;28;20041;-81
2023/12/06 08:25:25;;;;;;;22.20;16.92;;;;;;;;;;5006195;28;20478;-81
2023/12/06 08:27:51;;;;;;;27.95;17.88;;;;;;;;;;4985507;28;20030;-82
2023/12/06 08:30:17;;;;;;;26.20;17.48;;;;;;;;;;4957769;28;20097;-80
2023/12/06 08:32:45;;;;;;;21.45;15.98;;;;;;;;;;4975729;28;20479;-80
2023/12/06 08:35:11;;;;;;;21.15;14.65;;;;;;;;;;4956430;28;20039;-80
2023/12/06 08:37:37;;;;;;;19.27;15.05;;;;;;;;;;5004999;28;20165;-80
2023/12/06 08:40:04;;;;;;;25.45;15.63;;;;;;;;;;4988686;28;20046;-79
2023/12/06 08:42:30;;;;;;;18.13;12.73;;;;;;;;;;4973198;28;20060;-79
2023/12/06 08:44:56;;;;;;;17.20;13.38;;;;;;;;;;4965795;28;20042;-80
2023/12/06 08:47:22;;;;;;;19.63;11.18;;;;;;;;;;5005965;28;20073;-80
2023/12/06 08:49:48;;;;;;;16.45;11.68;;;;;;;;;;4974368;28;20046;-80
2023/12/06 08:52:15;;;;;;;16.13;10.95;;;;;;;;;;5004790;28;20121;-79
2023/12/06 08:54:41;;;;;;;17.50;11.77;;;;;;;;;;4973975;28;20093;-80
2023/12/06 08:57:07;;;;;;;15.88;12.07;;;;;;;;;;4986863;28;20089;-80
2023/12/06 08:59:33;;;;;;;16.95;11.50;;;;;;;;;;4958859;28;20042;-80
2023/12/06 09:01:59;;;;;;;19.63;10.73;;;;;;;;;;5004117;28;20038;-79
2023/12/06 09:04:25;;;;;;;15.35;10.80;;;;;;;;;;4956101;28;20479;-80
2023/12/06 09:06:51;;;;;;;18.63;11.27;;;;;;;;;;4975041;28;20414;-80
2023/12/06 09:09:17;;;;;;;17.42;11.02;;;;;;;;;;4990622;28;20116;-80
2023/12/06 09:11:47;;;;;;;12.95;10.50;;;;;;;;;;4972841;28;20041;-80
2023/12/06 09:14:13;;;;;;;14.05;11.20;;;;;;;;;;4986247;28;20502;-80
2023/12/06 09:16:42;;;;;;;18.50;11.43;;;;;;;;;;4984964;28;20042;-81
2023/12/06 09:19:08;;;;;;;16.75;11.80;;;;;;;;;;4992550;28;20134;-79
2023/12/06 09:21:40;;;;;;;12.10;10.25;;;;;;;;;;4973738;28;20067;-79
2023/12/06 09:24:07;;;;;;;15.23;10.63;;;;;;;;;;4974221;28;20042;-79
2023/12/06 09:26:33;;;;;;;13.23;10.80;;;;;;;;;;4985026;28;20053;-79
2023/12/06 09:29:02;;;;;;;13.57;10.63;;;;;;;;;;4999514;28;20047;-80
2023/12/06 09:31:28;;;;;;;15.55;10.45;;;;;;;;;;5005115;28;20046;-80
2023/12/06 09:33:54;;;;;;;12.35;9.95;;;;;;;;;;4974380;28;20478;-79
2023/12/06 09:36:20;;;;;;;14.05;11.05;;;;;;;;;;4984905;28;20390;-80
2023/12/06 09:38:46;;;;;;;14.27;10.48;;;;;;;;;;4989273;28;20034;-79
2023/12/06 09:41:12;;;;;;;13.15;10.90;;;;;;;;;;4988090;28;20129;-79
2023/12/06 09:43:39;;;;;;;12.40;10.15;;;;;;;;;;5005752;28;20066;-78
2023/12/06 09:46:05;;;;;;;14.35;10.05;;;;;;;;;;4986190;28;20503;-78
2023/12/06 09:48:31;;;;;;;17.95;11.23;;;;;;;;;;4988734;28;20127;-78
2023/12/06 09:50:58;;;;;;;12.85;10.32;;;;;;;;;;4974680;28;20037;-78
2023/12/06 09:53:24;;;;;;;13.00;10.57;;;;;;;;;;4975137;28;20043;-79
2023/12/06 09:55:51;;;;;;;14.63;10.80;;;;;;;;;;5006417;28;20054;-80
2023/12/06 09:58:19;;;;;;;14.77;10.98;;;;;;;;;;4991649;28;20048;-79
2023/12/06 10:00:45;;;;;;;13.60;10.63;;;;;;;;;;4989200;28;20046;-79
2023/12/06 10:03:13;;;;;;;14.07;10.55;;;;;;;;;;4975032;28;20050;-79
2023/12/06 10:05:40;;;;;;;17.05;10.20;;;;;;;;;;4975756;28;20050;-78
2023/12/06 10:08:06;;;;;;;16.02;11.32;;;;;;;;;;4987472;28;20038;-78
2023/12/06 10:10:32;;;;;;;14.45;10.27;;;;;;;;;;4966407;28;20523;-77
2023/12/06 10:12:59;;;;;;;15.95;9.90;;;;;;;;;;4985558;28;20046;-79
2023/12/06 10:15:25;;;;;;;17.65;10.25;;;;;;;;;;4975386;28;20042;-79
2023/12/06 10:17:51;;;;;;;13.43;10.35;;;;;;;;;;4988126;28;20144;-79
2023/12/06 10:20:21;;;;;;;13.88;10.55;;;;;;;;;;4985974;28;20046;-79
2023/12/06 10:22:47;;;;;;;19.48;11.05;;;;;;;;;;4972002;28;20056;-78
2023/12/06 10:25:13;;;;;;;15.02;11.52;;;;;;;;;;4973185;28;20034;-79
2023/12/06 10:27:40;;;;;;;12.18;10.07;;;;;;;;;;5003797;28;20046;-79
2023/12/06 10:30:06;;;;;;;12.90;10.32;;;;;;;;;;4971593;28;20113;-79
2023/12/06 10:32:33;;;;;;;14.98;10.93;;;;;;;;;;4971516;28;20046;-79
2023/12/06 10:35:00;;;;;;;12.90;10.85;;;;;;;;;;4967892;28;20050;-79
2023/12/06 10:37:27;;;;;;;15.00;11.38;;;;;;;;;;4988273;28;20549;-79
2023/12/06 10:39:59;;;;;;;16.27;11.93;;;;;;;;;;4972196;28;20042;-80
2023/12/06 10:42:27;;;;;;;15.00;10.25;;;;;;;;;;5002935;28;20081;-81
2023/12/06 10:44:54;;;;;;;14.07;10.50;;;;;;;;;;4984397;28;20046;-80
2023/12/06 10:47:20;;;;;;;13.30;10.70;;;;;;;;;;5000677;28;20065;-80
2023/12/06 10:49:47;;;;;;;21.17;10.82;;;;;;;;;;4969426;28;20130;-80
2023/12/06 10:52:13;;;;;;;16.27;10.98;;;;;;;;;;4951128;28;20050;-79
2023/12/06 10:54:44;;;;;;;12.63;10.50;;;;;;;;;;4997418;28;20046;-77
2023/12/06 10:57:11;;;;;;;13.05;9.95;;;;;;;;;;4964180;28;20522;-78
2023/12/06 10:59:37;;;;;;;12.38;10.70;;;;;;;;;;4985156;28;20096;-79
2023/12/06 11:02:04;;;;;;;14.93;10.88;;;;;;;;;;4970406;28;20661;-79
2023/12/06 11:04:36;;;;;;;12.07;10.68;;;;;;;;;;5000607;28;20038;-79
2023/12/06 11:07:31;;;;;;;18.05;10.85;;;;;;;;;;4984467;28;20096;-79
2023/12/06 11:10:20;;;;;;;11.70;10.20;;;;;;;;;;4935439;28;20520;-80
2023/12/06 11:13:05;;;;;;;12.55;10.60;;;;;;;;;;4967727;28;20058;-79
2023/12/06 11:16:05;;;;;;;16.20;11.23;;;3.20;99.90;;;;;;4985291;28;20046;-79
2023/12/06 11:18:45;;;;;;;13.77;10.75;;;;;;;;;;4986070;28;20100;-79
2023/12/06 11:21:13;;;;;;;14.80;10.73;;;;;;;;;;4986582;28;20459;-79
2023/12/06 11:23:39;;;;;;;12.90;9.95;;;;;;;;;;5001554;28;20046;-79
2023/12/06 11:26:05;;;;;;;15.23;10.50;;;;;;;;;;5000322;28;20030;-79
2023/12/06 11:28:39;;;;;;;12.48;10.07;;;;;;;;;;4985002;28;20038;-79
2023/12/06 11:31:05;;;;;;;10.68;8.70;;;;;;;;;;4983516;28;20045;-78
2023/12/06 11:33:31;;;;;;;12.23;8.77;;;;;;;;;;5001691;28;20475;-79
2023/12/06 11:35:59;;;;;;;10.77;8.38;;;;;;;;;;5002140;28;20042;-79
2023/12/06 11:38:39;;;;;;;10.25;8.75;;;;;;;;;;4967739;28;20140;-79
2023/12/06 11:41:06;;;;;;;12.48;8.32;;;;;;;;;;4985743;28;20506;-80
2023/12/06 11:43:37;;;;;;;11.80;8.57;;;;;;;;;;5003166;28;20521;-79
2023/12/06 11:46:04;;;;;;;10.65;7.82;;;;;;;;;;4967347;28;20145;-78
2023/12/06 11:48:32;;;;;;;9.05;8.10;;;;;;;;;;4964222;28;20552;-79
2023/12/06 11:50:59;;;;;;;10.18;7.95;;;;;;;;;;4985435;28;20046;-79
2023/12/06 11:53:29;;;;;;;13.80;8.38;;;;;;;;;;4983922;28;20034;-79
2023/12/06 11:55:55;;;;;;;9.65;8.30;;;;;;;;;;4990972;28;20089;-79
2023/12/06 11:58:22;;;;;;;10.85;8.23;;;;;;;;;;4989010;28;20046;-79
2023/12/06 12:00:54;;;;;;;10.15;8.35;;;;;;;;;;4991792;28;20553;-79
2023/12/06 12:03:20;;;;;;;10.40;8.77;;;;;;;;;;4988612;28;20039;-79
2023/12/06 12:05:47;;;;;;;12.23;9.07;;;;;;;;;;4957305;28;20039;-75
2023/12/06 12:08:13;;;;;;;11.00;9.35;;;;;;;;;;4974126;28;20133;-75
2023/12/06 12:10:43;;;;;;;12.90;9.55;;;;;;;;;;4961683;28;20571;-75
2023/12/06 12:13:19;;;;;;;10.23;8.10;;;;;;;;;;4972921;28;20038;-75
2023/12/06 12:16:00;;;;;;;8.85;7.57;;;;;;;;;;4969366;28;20125;-75
2023/12/06 12:18:26;;;;;;;9.63;7.97;;;;;;;;;;4987776;28;20084;-75
2023/12/06 12:20:52;;;;;;;11.63;8.93;;;;;;;;;;5004643;28;20129;-75
2023/12/06 12:23:18;;;;;;;10.38;7.80;;;;;;;;;;5006526;28;20054;-75
2023/12/06 12:25:48;;;;;;;11.13;7.95;;;;;;;;;;4989166;28;20394;-75
2023/12/06 12:28:18;;;;;;;8.55;7.00;;;;;;;;;;4972215;28;20050;-74
2023/12/06 12:30:46;;;;;;;10.90;7.63;;;;;;;;;;4974433;28;20049;-75
2023/12/06 12:33:13;;;;;;;10.35;7.97;;;;;;;;;;4971447;28;20072;-75
2023/12/06 12:35:39;;;;;;;12.20;8.07;;;;;;;;;;5004757;28;20057;-75
2023/12/06 12:38:05;;;;;;;9.43;7.60;;;;;;;;;;4999060;28;20039;-75
2023/12/06 12:40:32;;;;;;;11.60;7.85;;;;;;;;;;5001295;28;20053;-74
2023/12/06 12:42:58;;;;;;;13.57;8.38;;;;;;;;;;4978058;28;20078;-74
2023/12/06 12:45:26;;;;;;;10.98;7.90;;;;;;;;;;4971093;28;20081;-75
2023/12/06 12:47:53;;;;;;;9.25;8.27;;;;;;;;;;5008156;28;20371;-75
2023/12/06 12:50:20;;;;;;;11.35;8.98;;;;;;;;;;5001299;28;20493;-74
2023/12/06 12:52:46;;;;;;;10.57;8.93;;;;;;;;;;5005581;28;20477;-75
2023/12/06 12:55:19;;;;;;;12.13;8.45;;;;;;;;;;4989522;28;20046;-76
2023/12/06 12:57:45;;;;;;;9.45;8.45;;;;;;;;;;5002193;28;20711;-75
2023/12/06 13:00:19;;;;;;;12.65;8.55;;;;;;;;;;4987279;28;20394;-75
2023/12/06 13:02:47;;;;;;;12.73;8.95;;;;;;;;;;5002690;28;20417;-75
2023/12/06 13:05:13;;;;;;;7.78;6.78;;;;;;;;;;5001040;28;20066;-79
2023/12/06 13:07:39;;;;;;;9.55;7.95;;;;;;;;;;4965560;28;20086;-80
2023/12/06 13:10:10;;;;;;;11.95;8.55;;;;;;;;;;4997713;28;20368;-79
2023/12/06 13:12:37;;;;;;;13.63;8.80;;;;;;;;;;4986439;28;20453;-80
2023/12/06 13:15:04;;;;;;;11.68;8.93;;;;;;;;;;5004416;28;20077;-74
2023/12/06 13:17:30;;;;;;;10.32;7.95;;;;;;;;;;4971950;28;20046;-74
2023/12/06 13:19:57;;;;;;;14.25;10.20;;;;;;;;;;4957358;28;20042;-75
2023/12/06 13:22:23;;;;;;;11.25;9.20;;;;;;;;;;5000615;28;20073;-77
2023/12/06 13:24:49;;;;;;;11.77;8.35;;;;;;;;;;4986559;28;20086;-73
2023/12/06 13:27:15;;;;;;;14.55;9.80;;;;;;;;;;4970611;28;20034;-75
2023/12/06 13:29:42;;;;;;;13.73;9.65;;;;;;;;;;4953171;28;20054;-75
2023/12/06 13:32:08;;;;;;;10.85;8.80;;;;;;;;;;5003334;28;20505;-76
2023/12/06 13:34:34;;;;;;;13.30;9.52;;;;;;;;;;4971550;28;20096;-75
2023/12/06 13:37:00;;;;;;;10.07;8.20;;;;;;;;;;4974406;28;20042;-74
2023/12/06 13:39:29;;;;;;;12.50;9.40;;;;;;;;;;4970465;28;20038;-75
2023/12/06 13:41:55;;;;;;;14.98;9.02;;;;;;;;;;4972018;28;20522;-75
2023/12/06 13:44:22;;;;;;;12.32;8.60;;;;;;;;;;5003107;28;20050;-75
2023/12/06 13:46:48;;;;;;;10.90;8.63;;;;;;;;;;4986953;28;20046;-76
2023/12/06 13:49:14;;;;;;;12.98;9.13;;;;;;;;;;4970073;28;20447;-77
2023/12/06 13:51:40;;;;;;;11.82;9.10;;;;;;;;;;4970609;28;20129;-77
2023/12/06 13:54:06;;;;;;;11.38;8.40;;;;;;;;;;4982428;28;20122;-74
2023/12/06 13:56:32;;;;;;;11.52;8.85;;;;;;;;;;4970861;28;20042;-75
2023/12/06 13:58:58;;;;;;;11.70;7.90;;;;;;;;;;4967969;28;20053;-76
2023/12/06 14:01:24;;;;;;;10.15;7.63;;;;;;;;;;5002581;28;20154;-75
2023/12/06 14:03:55;;;;;;;11.13;8.85;;;;;;;;;;4972734;28;20030;-77
2023/12/06 14:06:22;;;;;;;11.30;9.48;;;;;;;;;;4985985;28;20097;-76
2023/12/06 14:08:48;;;;;;;12.80;9.00;;;;;;;;;;4970853;28;20080;-75
2023/12/06 14:11:14;;;;;;;11.50;8.32;;;;;;;;;;4983335;28;20487;-76
2023/12/06 14:13:40;;;;;;;9.18;8.15;;;;;;;;;;4987231;28;20042;-75
2023/12/06 14:16:07;;;;;;;14.15;9.32;;;;;;;;;;4971948;28;20557;-75
2023/12/06 14:18:33;;;;;;;12.23;7.45;;;;;;;;;;4988507;28;20502;-75